sensor_id;sensor_type;location;lat;lon;timestamp;temperature;humidity
21019;DHT22;10667;51.056;3.732;2023-03-23T00:01:16;13.90;99.90
21019;DHT22;10667;51.056;3.732;2023-03-23T00:03:47;13.90;99.90
21019;DHT22;10667;51.056;3.732;2023-03-23T00:06:13;13.90;99.90
21019;DHT22;10667;51.056;3.732;2023-03-23T00:08:45;13.80;99.90
21019;DHT22;10667;51.056;3.732;2023-03-23T00:11:18;13.80;99.90
21019;DHT22;10667;51.056;3.732;2023-03-23T00:13:48;13.90;99.90
21019;DHT22;10667;51.056;3.732;2023-03-23T00:16:19;13.80;99.90
21019;DHT22;10667;51.056;3.732;2023-03-23T00:18:47;13.90;99.90
21019;DHT22;10667;51.056;3.732;2023-03-23T00:21:13;13.90;99.90
21019;DHT22;10667;51.056;3.732;2023-03-23T00:23:39;13.90;99.90
21019;DHT22;10667;51.056;3.732;2023-03-23T00:26:05;13.70;99.90
21019;DHT22;10667;51.056;3.732;2023-03-23T00:28:31;13.60;99.90
21019;DHT22;10667;51.056;3.732;2023-03-23T00:33:24;13.90;99.90
21019;DHT22;10667;51.056;3.732;2023-03-23T00:35:51;14.00;99.90
21019;DHT22;10667;51.056;3.732;2023-03-23T00:38:19;14.00;99.90
21019;DHT22;10667;51.056;3.732;2023-03-23T00:40:45;13.80;99.90
21019;DHT22;10667;51.056;3.732;2023-03-23T00:43:16;13.70;99.90
21019;DHT22;10667;51.056;3.732;2023-03-23T00:45:43;13.70;99.90
21019;DHT22;10667;51.056;3.732;2023-03-23T00:48:21;13.60;99.90
21019;DHT22;10667;51.056;3.732;2023-03-23T00:50:48;13.50;99.90
21019;DHT22;10667;51.056;3.732;2023-03-23T00:53:14;13.70;99.90
21019;DHT22;10667;51.056;3.732;2023-03-23T00:55:41;13.70;99.90
21019;DHT22;10667;51.056;3.732;2023-03-23T00:58:08;13.60;99.90
21019;DHT22;10667;51.056;3.732;2023-03-23T01:00:34;13.70;99.90
21019;DHT22;10667;51.056;3.732;2023-03-23T01:03:00;14.00;99.90
21019;DHT22;10667;51.056;3.732;2023-03-23T01:05:25;14.00;99.90
21019;DHT22;10667;51.056;3.732;2023-03-23T01:08:00;14.00;99.90
21019;DHT22;10667;51.056;3.732;2023-03-23T01:10:27;13.80;99.90
21019;DHT22;10667;51.056;3.732;2023-03-23T01:12:54;13.70;99.90
21019;DHT22;10667;51.056;3.732;2023-03-23T01:15:20;13.90;99.90
21019;DHT22;10667;51.056;3.732;2023-03-23T01:17:46;14.00;99.90
21019;DHT22;10667;51.056;3.732;2023-03-23T01:20:14;14.00;99.90
21019;DHT22;10667;51.056;3.732;2023-03-23T01:22:41;13.80;99.90
21019;DHT22;10667;51.056;3.732;2023-03-23T01:25:08;13.90;99.90
21019;DHT22;10667;51.056;3.732;2023-03-23T01:27:35;13.80;99.90
21019;DHT22;10667;51.056;3.732;2023-03-23T01:30:01;13.90;99.90
21019;DHT22;10667;51.056;3.732;2023-03-23T01:32:26;13.70;99.90
21019;DHT22;10667;51.056;3.732;2023-03-23T01:34:52;13.70;99.90
21019;DHT22;10667;51.056;3.732;2023-03-23T01:37:18;13.80;99.90
21019;DHT22;10667;51.056;3.732;2023-03-23T01:39:45;13.70;99.90
21019;DHT22;10667;51.056;3.732;2023-03-23T01:42:11;13.80;99.90
21019;DHT22;10667;51.056;3.732;2023-03-23T01:47:03;13.70;99.90
21019;DHT22;10667;51.056;3.732;2023-03-23T01:49:35;13.70;99.90
21019;DHT22;10667;51.056;3.732;2023-03-23T01:52:07;13.70;99.90
21019;DHT22;10667;51.056;3.732;2023-03-23T01:54:34;13.80;99.90
21019;DHT22;10667;51.056;3.732;2023-03-23T01:57:10;13.70;99.90
21019;DHT22;10667;51.056;3.732;2023-03-23T01:59:36;13.70;99.90
21019;DHT22;10667;51.056;3.732;2023-03-23T02:02:03;13.70;99.90
21019;DHT22;10667;51.056;3.732;2023-03-23T02:04:30;13.70;99.90
21019;DHT22;10667;51.056;3.732;2023-03-23T02:06:57;13.80;99.90
21019;DHT22;10667;51.056;3.732;2023-03-23T02:09:25;13.80;99.90
21019;DHT22;10667;51.056;3.732;2023-03-23T02:11:51;13.90;99.90
21019;DHT22;10667;51.056;3.732;2023-03-23T02:14:18;13.90;99.90
21019;DHT22;10667;51.056;3.732;2023-03-23T02:28:10;13.70;99.90
21019;DHT22;10667;51.056;3.732;2023-03-23T02:33:44;13.70;99.90
21019;DHT22;10667;51.056;3.732;2023-03-23T02:41:31;13.90;99.90
21019;DHT22;10667;51.056;3.732;2023-03-23T02:44:02;13.80;99.90
21019;DHT22;10667;51.056;3.732;2023-03-23T02:46:29;13.90;99.90
21019;DHT22;10667;51.056;3.732;2023-03-23T02:48:57;13.80;99.90
21019;DHT22;10667;51.056;3.732;2023-03-23T02:51:24;13.90;99.90
21019;DHT22;10667;51.056;3.732;2023-03-23T02:53:52;13.90;99.90
21019;DHT22;10667;51.056;3.732;2023-03-23T02:56:22;13.90;99.90
21019;DHT22;10667;51.056;3.732;2023-03-23T02:58:48;13.80;99.90
21019;DHT22;10667;51.056;3.732;2023-03-23T03:04:11;13.80;99.90
21019;DHT22;10667;51.056;3.732;2023-03-23T03:07:30;13.90;99.90
21019;DHT22;10667;51.056;3.732;2023-03-23T03:09:58;13.90;99.90
21019;DHT22;10667;51.056;3.732;2023-03-23T03:15:33;13.70;99.90
21019;DHT22;10667;51.056;3.732;2023-03-23T03:20:35;13.50;99.90
21019;DHT22;10667;51.056;3.732;2023-03-23T03:23:04;13.60;99.90
21019;DHT22;10667;51.056;3.732;2023-03-23T03:25:33;13.80;99.90
21019;DHT22;10667;51.056;3.732;2023-03-23T03:28:00;13.80;99.90
21019;DHT22;10667;51.056;3.732;2023-03-23T03:30:30;13.50;99.90
21019;DHT22;10667;51.056;3.732;2023-03-23T03:32:57;13.70;99.90
21019;DHT22;10667;51.056;3.732;2023-03-23T03:35:26;13.50;99.90
21019;DHT22;10667;51.056;3.732;2023-03-23T03:37:52;13.50;99.90
21019;DHT22;10667;51.056;3.732;2023-03-23T03:40:20;13.40;99.90
21019;DHT22;10667;51.056;3.732;2023-03-23T03:42:46;13.80;99.90
21019;DHT22;10667;51.056;3.732;2023-03-23T03:45:17;13.70;99.90
21019;DHT22;10667;51.056;3.732;2023-03-23T03:47:44;13.70;99.90
21019;DHT22;10667;51.056;3.732;2023-03-23T03:50:10;13.70;99.90
21019;DHT22;10667;51.056;3.732;2023-03-23T03:52:36;13.50;99.90
21019;DHT22;10667;51.056;3.732;2023-03-23T03:55:04;13.60;99.90
21019;DHT22;10667;51.056;3.732;2023-03-23T03:57:30;13.50;99.90
21019;DHT22;10667;51.056;3.732;2023-03-23T03:59:56;13.60;99.90
21019;DHT22;10667;51.056;3.732;2023-03-23T04:02:22;13.50;99.90
21019;DHT22;10667;51.056;3.732;2023-03-23T04:04:48;13.50;99.90
21019;DHT22;10667;51.056;3.732;2023-03-23T04:07:14;13.60;99.90
21019;DHT22;10667;51.056;3.732;2023-03-23T04:09:45;13.70;99.90
21019;DHT22;10667;51.056;3.732;2023-03-23T04:12:15;13.80;99.90
21019;DHT22;10667;51.056;3.732;2023-03-23T04:14:41;13.90;99.90
21019;DHT22;10667;51.056;3.732;2023-03-23T04:17:07;13.80;99.90
21019;DHT22;10667;51.056;3.732;2023-03-23T04:19:35;13.60;99.90
21019;DHT22;10667;51.056;3.732;2023-03-23T04:22:03;13.40;99.90
21019;DHT22;10667;51.056;3.732;2023-03-23T04:24:29;13.60;99.90
21019;DHT22;10667;51.056;3.732;2023-03-23T04:26:57;13.60;99.90
21019;DHT22;10667;51.056;3.732;2023-03-23T04:29:23;13.50;99.90
21019;DHT22;10667;51.056;3.732;2023-03-23T04:31:49;13.50;99.90
21019;DHT22;10667;51.056;3.732;2023-03-23T04:34:16;13.50;99.90
21019;DHT22;10667;51.056;3.732;2023-03-23T04:36:42;13.40;99.90
21019;DHT22;10667;51.056;3.732;2023-03-23T04:39:08;13.30;99.90
21019;DHT22;10667;51.056;3.732;2023-03-23T04:41:39;13.40;99.90
21019;DHT22;10667;51.056;3.732;2023-03-23T04:44:06;13.50;99.90
21019;DHT22;10667;51.056;3.732;2023-03-23T04:46:32;13.50;99.90
21019;DHT22;10667;51.056;3.732;2023-03-23T04:49:01;13.60;99.90
21019;DHT22;10667;51.056;3.732;2023-03-23T04:51:28;13.40;99.90
21019;DHT22;10667;51.056;3.732;2023-03-23T04:53:55;13.20;99.90
21019;DHT22;10667;51.056;3.732;2023-03-23T04:56:21;13.30;99.90
21019;DHT22;10667;51.056;3.732;2023-03-23T04:58:47;13.40;99.90
21019;DHT22;10667;51.056;3.732;2023-03-23T05:01:13;13.50;99.90
21019;DHT22;10667;51.056;3.732;2023-03-23T05:03:40;13.30;99.90
21019;DHT22;10667;51.056;3.732;2023-03-23T05:06:06;13.40;99.90
21019;DHT22;10667;51.056;3.732;2023-03-23T05:08:32;13.30;99.90
21019;DHT22;10667;51.056;3.732;2023-03-23T05:10:59;13.20;99.90
21019;DHT22;10667;51.056;3.732;2023-03-23T05:13:27;13.10;99.90
21019;DHT22;10667;51.056;3.732;2023-03-23T05:15:54;13.20;99.90
21019;DHT22;10667;51.056;3.732;2023-03-23T05:18:20;13.20;99.90
21019;DHT22;10667;51.056;3.732;2023-03-23T05:20:46;13.20;99.90
21019;DHT22;10667;51.056;3.732;2023-03-23T05:23:12;13.30;99.90
21019;DHT22;10667;51.056;3.732;2023-03-23T05:25:38;13.20;99.90
21019;DHT22;10667;51.056;3.732;2023-03-23T05:28:08;13.20;99.90
21019;DHT22;10667;51.056;3.732;2023-03-23T05:30:34;12.90;99.90
21019;DHT22;10667;51.056;3.732;2023-03-23T05:33:00;12.90;99.90
21019;DHT22;10667;51.056;3.732;2023-03-23T05:35:26;12.90;99.90
21019;DHT22;10667;51.056;3.732;2023-03-23T05:37:52;12.70;99.90
21019;DHT22;10667;51.056;3.732;2023-03-23T05:40:19;12.60;99.90
21019;DHT22;10667;51.056;3.732;2023-03-23T05:42:45;12.40;99.90
21019;DHT22;10667;51.056;3.732;2023-03-23T05:45:12;12.20;99.90
21019;DHT22;10667;51.056;3.732;2023-03-23T05:47:40;12.20;99.90
21019;DHT22;10667;51.056;3.732;2023-03-23T05:50:07;12.10;99.90
21019;DHT22;10667;51.056;3.732;2023-03-23T05:52:34;12.10;99.90
21019;DHT22;10667;51.056;3.732;2023-03-23T05:55:01;12.00;99.90
21019;DHT22;10667;51.056;3.732;2023-03-23T05:57:28;12.00;99.90
21019;DHT22;10667;51.056;3.732;2023-03-23T05:59:54;11.80;99.90
21019;DHT22;10667;51.056;3.732;2023-03-23T06:02:21;11.90;99.90
21019;DHT22;10667;51.056;3.732;2023-03-23T06:04:48;12.20;99.90
21019;DHT22;10667;51.056;3.732;2023-03-23T06:07:14;11.90;99.90
21019;DHT22;10667;51.056;3.732;2023-03-23T06:09:41;12.00;99.90
21019;DHT22;10667;51.056;3.732;2023-03-23T06:12:07;11.90;99.90
21019;DHT22;10667;51.056;3.732;2023-03-23T06:14:35;11.90;99.90
21019;DHT22;10667;51.056;3.732;2023-03-23T06:17:00;12.00;99.90
21019;DHT22;10667;51.056;3.732;2023-03-23T06:19:26;11.80;99.90
21019;DHT22;10667;51.056;3.732;2023-03-23T06:21:53;11.80;99.90
21019;DHT22;10667;51.056;3.732;2023-03-23T06:24:19;11.60;99.90
21019;DHT22;10667;51.056;3.732;2023-03-23T06:26:46;11.70;99.90
21019;DHT22;10667;51.056;3.732;2023-03-23T06:29:13;11.40;99.90
21019;DHT22;10667;51.056;3.732;2023-03-23T06:31:45;11.40;99.90
21019;DHT22;10667;51.056;3.732;2023-03-23T06:34:11;11.60;99.90
21019;DHT22;10667;51.056;3.732;2023-03-23T06:36:37;11.80;99.90
21019;DHT22;10667;51.056;3.732;2023-03-23T06:39:04;12.00;99.90
21019;DHT22;10667;51.056;3.732;2023-03-23T06:41:33;11.80;99.90
21019;DHT22;10667;51.056;3.732;2023-03-23T06:44:00;11.90;99.90
21019;DHT22;10667;51.056;3.732;2023-03-23T06:46:26;11.90;99.90
21019;DHT22;10667;51.056;3.732;2023-03-23T06:48:53;11.70;99.90
21019;DHT22;10667;51.056;3.732;2023-03-23T06:51:19;11.70;99.90
21019;DHT22;10667;51.056;3.732;2023-03-23T06:53:44;11.70;99.90
21019;DHT22;10667;51.056;3.732;2023-03-23T06:56:11;11.80;99.90
21019;DHT22;10667;51.056;3.732;2023-03-23T06:58:38;11.80;99.90
21019;DHT22;10667;51.056;3.732;2023-03-23T07:01:05;11.80;99.90
21019;DHT22;10667;51.056;3.732;2023-03-23T07:03:31;11.80;99.90
21019;DHT22;10667;51.056;3.732;2023-03-23T07:05:57;11.90;99.90
21019;DHT22;10667;51.056;3.732;2023-03-23T07:08:24;11.90;99.90
21019;DHT22;10667;51.056;3.732;2023-03-23T07:10:54;11.80;99.90
21019;DHT22;10667;51.056;3.732;2023-03-23T07:13:20;12.00;99.90
21019;DHT22;10667;51.056;3.732;2023-03-23T07:15:46;12.00;99.90
21019;DHT22;10667;51.056;3.732;2023-03-23T07:18:13;11.80;99.90
21019;DHT22;10667;51.056;3.732;2023-03-23T07:20:39;11.90;99.90
21019;DHT22;10667;51.056;3.732;2023-03-23T07:23:05;12.00;99.90
21019;DHT22;10667;51.056;3.732;2023-03-23T07:25:32;11.90;99.90
21019;DHT22;10667;51.056;3.732;2023-03-23T07:27:59;11.80;99.90
21019;DHT22;10667;51.056;3.732;2023-03-23T07:30:25;11.90;99.90
21019;DHT22;10667;51.056;3.732;2023-03-23T07:32:52;12.30;99.90
21019;DHT22;10667;51.056;3.732;2023-03-23T07:35:18;12.40;99.90
21019;DHT22;10667;51.056;3.732;2023-03-23T07:37:44;12.50;99.90
21019;DHT22;10667;51.056;3.732;2023-03-23T07:40:11;12.70;99.90
21019;DHT22;10667;51.056;3.732;2023-03-23T07:42:45;12.60;99.90
21019;DHT22;10667;51.056;3.732;2023-03-23T07:45:12;12.30;99.90
21019;DHT22;10667;51.056;3.732;2023-03-23T07:47:39;12.40;99.90
21019;DHT22;10667;51.056;3.732;2023-03-23T07:50:06;12.30;99.90
21019;DHT22;10667;51.056;3.732;2023-03-23T07:52:33;12.00;99.90
21019;DHT22;10667;51.056;3.732;2023-03-23T07:54:59;12.10;99.90
21019;DHT22;10667;51.056;3.732;2023-03-23T07:57:26;12.00;99.90
21019;DHT22;10667;51.056;3.732;2023-03-23T07:59:52;11.80;99.90
21019;DHT22;10667;51.056;3.732;2023-03-23T08:02:18;12.00;99.90
21019;DHT22;10667;51.056;3.732;2023-03-23T08:04:45;12.00;99.90
21019;DHT22;10667;51.056;3.732;2023-03-23T08:07:13;12.10;99.90
21019;DHT22;10667;51.056;3.732;2023-03-23T08:09:42;12.00;99.90
21019;DHT22;10667;51.056;3.732;2023-03-23T08:12:07;12.00;99.90
21019;DHT22;10667;51.056;3.732;2023-03-23T08:14:33;11.90;99.90
21019;DHT22;10667;51.056;3.732;2023-03-23T08:16:59;11.90;99.90
21019;DHT22;10667;51.056;3.732;2023-03-23T08:19:25;12.30;99.90
21019;DHT22;10667;51.056;3.732;2023-03-23T08:21:51;12.50;99.90
21019;DHT22;10667;51.056;3.732;2023-03-23T08:24:17;12.60;99.90
21019;DHT22;10667;51.056;3.732;2023-03-23T08:26:44;12.60;99.90
21019;DHT22;10667;51.056;3.732;2023-03-23T08:29:10;12.50;99.90
21019;DHT22;10667;51.056;3.732;2023-03-23T08:31:35;12.40;99.90
21019;DHT22;10667;51.056;3.732;2023-03-23T08:34:02;12.30;99.90
21019;DHT22;10667;51.056;3.732;2023-03-23T08:36:30;12.50;99.90
21019;DHT22;10667;51.056;3.732;2023-03-23T08:38:57;12.50;99.90
21019;DHT22;10667;51.056;3.732;2023-03-23T08:41:23;12.50;99.90
21019;DHT22;10667;51.056;3.732;2023-03-23T08:43:49;12.50;99.90
21019;DHT22;10667;51.056;3.732;2023-03-23T08:46:15;12.60;99.90
21019;DHT22;10667;51.056;3.732;2023-03-23T08:48:42;12.90;99.90
21019;DHT22;10667;51.056;3.732;2023-03-23T08:51:09;13.10;99.90
21019;DHT22;10667;51.056;3.732;2023-03-23T08:53:35;13.40;99.90
21019;DHT22;10667;51.056;3.732;2023-03-23T08:56:06;13.10;99.90
21019;DHT22;10667;51.056;3.732;2023-03-23T08:58:34;13.30;99.90
21019;DHT22;10667;51.056;3.732;2023-03-23T09:01:00;13.50;99.90
21019;DHT22;10667;51.056;3.732;2023-03-23T09:03:26;13.20;99.90
21019;DHT22;10667;51.056;3.732;2023-03-23T09:05:52;13.30;99.90
21019;DHT22;10667;51.056;3.732;2023-03-23T09:08:19;13.20;99.90
21019;DHT22;10667;51.056;3.732;2023-03-23T09:10:45;13.10;99.90
21019;DHT22;10667;51.056;3.732;2023-03-23T09:13:10;13.20;99.90
21019;DHT22;10667;51.056;3.732;2023-03-23T09:15:36;13.40;99.90
21019;DHT22;10667;51.056;3.732;2023-03-23T09:18:02;13.60;99.90
21019;DHT22;10667;51.056;3.732;2023-03-23T09:20:29;13.70;99.90
21019;DHT22;10667;51.056;3.732;2023-03-23T09:22:56;13.50;99.90
21019;DHT22;10667;51.056;3.732;2023-03-23T09:25:25;13.60;99.90
21019;DHT22;10667;51.056;3.732;2023-03-23T09:27:54;13.50;99.90
21019;DHT22;10667;51.056;3.732;2023-03-23T09:30:23;13.40;99.90
21019;DHT22;10667;51.056;3.732;2023-03-23T09:32:49;13.50;99.90
21019;DHT22;10667;51.056;3.732;2023-03-23T09:35:16;13.60;99.90
21019;DHT22;10667;51.056;3.732;2023-03-23T09:37:43;13.40;99.90
21019;DHT22;10667;51.056;3.732;2023-03-23T09:54:27;13.70;99.90
21019;DHT22;10667;51.056;3.732;2023-03-23T09:56:55;13.90;99.90
21019;DHT22;10667;51.056;3.732;2023-03-23T10:02:15;13.80;99.90
21019;DHT22;10667;51.056;3.732;2023-03-23T10:04:50;13.80;99.90
21019;DHT22;10667;51.056;3.732;2023-03-23T10:07:27;13.80;99.90
21019;DHT22;10667;51.056;3.732;2023-03-23T10:09:59;14.00;99.90
21019;DHT22;10667;51.056;3.732;2023-03-23T10:12:47;14.20;99.90
21019;DHT22;10667;51.056;3.732;2023-03-23T10:15:27;14.30;99.90
21019;DHT22;10667;51.056;3.732;2023-03-23T10:18:15;14.40;99.90
21019;DHT22;10667;51.056;3.732;2023-03-23T10:20:54;14.20;99.90
21019;DHT22;10667;51.056;3.732;2023-03-23T10:23:48;14.40;99.90
21019;DHT22;10667;51.056;3.732;2023-03-23T10:26:42;14.70;99.90
21019;DHT22;10667;51.056;3.732;2023-03-23T10:30:16;14.90;99.90
21019;DHT22;10667;51.056;3.732;2023-03-23T10:32:22;14.40;99.90
21019;DHT22;10667;51.056;3.732;2023-03-23T10:34:59;14.60;99.90
21019;DHT22;10667;51.056;3.732;2023-03-23T10:37:34;14.70;99.90
21019;DHT22;10667;51.056;3.732;2023-03-23T10:40:04;14.70;99.90
21019;DHT22;10667;51.056;3.732;2023-03-23T10:42:36;14.50;99.90
21019;DHT22;10667;51.056;3.732;2023-03-23T10:47:48;14.40;99.90
21019;DHT22;10667;51.056;3.732;2023-03-23T10:50:22;14.50;99.90
21019;DHT22;10667;51.056;3.732;2023-03-23T10:52:50;14.50;99.90
21019;DHT22;10667;51.056;3.732;2023-03-23T10:55:21;14.40;99.90
21019;DHT22;10667;51.056;3.732;2023-03-23T10:58:27;14.10;99.90
21019;DHT22;10667;51.056;3.732;2023-03-23T11:00:58;13.90;99.90
21019;DHT22;10667;51.056;3.732;2023-03-23T11:06:05;14.00;99.90
21019;DHT22;10667;51.056;3.732;2023-03-23T11:08:35;13.60;99.90
21019;DHT22;10667;51.056;3.732;2023-03-23T11:13:45;13.60;99.90
21019;DHT22;10667;51.056;3.732;2023-03-23T11:18:54;13.60;99.90
21019;DHT22;10667;51.056;3.732;2023-03-23T11:21:22;13.60;99.90
21019;DHT22;10667;51.056;3.732;2023-03-23T11:23:55;13.70;99.90
21019;DHT22;10667;51.056;3.732;2023-03-23T11:26:30;13.80;99.90
21019;DHT22;10667;51.056;3.732;2023-03-23T11:29:02;14.10;99.90
21019;DHT22;10667;51.056;3.732;2023-03-23T11:31:38;14.30;99.90
21019;DHT22;10667;51.056;3.732;2023-03-23T11:36:38;14.70;99.90
21019;DHT22;10667;51.056;3.732;2023-03-23T11:41:50;14.20;99.90
21019;DHT22;10667;51.056;3.732;2023-03-23T11:44:15;14.20;99.90
21019;DHT22;10667;51.056;3.732;2023-03-23T11:46:55;14.40;99.90
21019;DHT22;10667;51.056;3.732;2023-03-23T11:50:00;14.30;99.90
21019;DHT22;10667;51.056;3.732;2023-03-23T11:55:15;14.40;99.90
21019;DHT22;10667;51.056;3.732;2023-03-23T11:57:42;14.40;99.90
21019;DHT22;10667;51.056;3.732;2023-03-23T12:00:16;14.40;99.90
21019;DHT22;10667;51.056;3.732;2023-03-23T12:03:05;14.30;99.90
21019;DHT22;10667;51.056;3.732;2023-03-23T12:11:37;14.60;99.90
21019;DHT22;10667;51.056;3.732;2023-03-23T12:27:48;15.20;99.90
21019;DHT22;10667;51.056;3.732;2023-03-23T12:30:43;15.30;99.90
21019;DHT22;10667;51.056;3.732;2023-03-23T12:47:57;15.20;99.90
21019;DHT22;10667;51.056;3.732;2023-03-23T12:50:31;15.30;99.90
21019;DHT22;10667;51.056;3.732;2023-03-23T12:53:06;15.50;99.90
21019;DHT22;10667;51.056;3.732;2023-03-23T12:58:43;15.50;99.90
21019;DHT22;10667;51.056;3.732;2023-03-23T13:01:32;15.50;99.90
21019;DHT22;10667;51.056;3.732;2023-03-23T13:04:21;15.60;99.90
21019;DHT22;10667;51.056;3.732;2023-03-23T13:06:46;15.80;99.90
21019;DHT22;10667;51.056;3.732;2023-03-23T13:09:27;16.00;99.90
21019;DHT22;10667;51.056;3.732;2023-03-23T13:11:56;15.90;99.90
21019;DHT22;10667;51.056;3.732;2023-03-23T13:14:40;15.90;99.90
21019;DHT22;10667;51.056;3.732;2023-03-23T13:22:50;16.20;99.90
21019;DHT22;10667;51.056;3.732;2023-03-23T13:28:15;16.40;99.90
21019;DHT22;10667;51.056;3.732;2023-03-23T13:30:59;16.40;99.90
21019;DHT22;10667;51.056;3.732;2023-03-23T13:33:29;16.70;99.90
21019;DHT22;10667;51.056;3.732;2023-03-23T13:35:56;16.50;99.90
21019;DHT22;10667;51.056;3.732;2023-03-23T13:38:27;16.30;99.90
21019;DHT22;10667;51.056;3.732;2023-03-23T13:40:56;16.30;99.90
21019;DHT22;10667;51.056;3.732;2023-03-23T13:43:31;16.10;99.90
21019;DHT22;10667;51.056;3.732;2023-03-23T13:46:09;16.10;99.90
21019;DHT22;10667;51.056;3.732;2023-03-23T13:48:44;16.30;99.90
21019;DHT22;10667;51.056;3.732;2023-03-23T13:51:34;16.30;99.90
21019;DHT22;10667;51.056;3.732;2023-03-23T13:54:31;16.30;99.90
21019;DHT22;10667;51.056;3.732;2023-03-23T13:56:59;16.10;99.90
21019;DHT22;10667;51.056;3.732;2023-03-23T14:01:57;16.10;99.90
21019;DHT22;10667;51.056;3.732;2023-03-23T14:04:30;16.20;99.90
21019;DHT22;10667;51.056;3.732;2023-03-23T14:07:09;16.20;99.90
21019;DHT22;10667;51.056;3.732;2023-03-23T14:09:41;16.10;99.90
21019;DHT22;10667;51.056;3.732;2023-03-23T14:12:20;16.20;99.90
21019;DHT22;10667;51.056;3.732;2023-03-23T14:14:49;16.10;99.90
21019;DHT22;10667;51.056;3.732;2023-03-23T14:17:18;15.90;99.90
21019;DHT22;10667;51.056;3.732;2023-03-23T14:19:48;15.90;99.90
21019;DHT22;10667;51.056;3.732;2023-03-23T14:22:36;15.80;99.90
21019;DHT22;10667;51.056;3.732;2023-03-23T14:27:39;15.70;99.90
21019;DHT22;10667;51.056;3.732;2023-03-23T14:30:12;15.90;99.90
21019;DHT22;10667;51.056;3.732;2023-03-23T14:32:38;16.10;99.90
21019;DHT22;10667;51.056;3.732;2023-03-23T14:35:08;16.00;99.90
21019;DHT22;10667;51.056;3.732;2023-03-23T14:37:35;16.10;99.90
21019;DHT22;10667;51.056;3.732;2023-03-23T14:40:02;16.20;99.90
21019;DHT22;10667;51.056;3.732;2023-03-23T14:42:33;16.00;99.90
21019;DHT22;10667;51.056;3.732;2023-03-23T14:45:00;15.90;99.90
21019;DHT22;10667;51.056;3.732;2023-03-23T14:47:32;16.10;99.90
21019;DHT22;10667;51.056;3.732;2023-03-23T14:50:01;16.30;99.90
21019;DHT22;10667;51.056;3.732;2023-03-23T14:52:33;16.30;99.90
21019;DHT22;10667;51.056;3.732;2023-03-23T14:55:32;16.30;99.90
21019;DHT22;10667;51.056;3.732;2023-03-23T14:58:08;16.40;99.90
21019;DHT22;10667;51.056;3.732;2023-03-23T15:00:41;16.30;99.90
21019;DHT22;10667;51.056;3.732;2023-03-23T15:03:12;16.30;99.90
21019;DHT22;10667;51.056;3.732;2023-03-23T15:05:43;16.50;99.90
21019;DHT22;10667;51.056;3.732;2023-03-23T15:08:15;16.50;99.90
21019;DHT22;10667;51.056;3.732;2023-03-23T15:11:13;16.10;99.90
21019;DHT22;10667;51.056;3.732;2023-03-23T15:13:41;16.00;99.90
21019;DHT22;10667;51.056;3.732;2023-03-23T15:16:15;16.20;99.90
21019;DHT22;10667;51.056;3.732;2023-03-23T15:19:05;16.30;99.90
21019;DHT22;10667;51.056;3.732;2023-03-23T15:21:33;16.40;99.90
21019;DHT22;10667;51.056;3.732;2023-03-23T15:24:01;16.40;99.90
21019;DHT22;10667;51.056;3.732;2023-03-23T15:26:33;16.30;99.90
21019;DHT22;10667;51.056;3.732;2023-03-23T15:29:20;16.20;99.90
21019;DHT22;10667;51.056;3.732;2023-03-23T15:34:35;16.30;99.90
21019;DHT22;10667;51.056;3.732;2023-03-23T15:37:28;16.30;99.90
21019;DHT22;10667;51.056;3.732;2023-03-23T15:39:56;16.40;99.90
21019;DHT22;10667;51.056;3.732;2023-03-23T15:42:28;16.40;99.90
21019;DHT22;10667;51.056;3.732;2023-03-23T15:50:20;16.50;99.90
21019;DHT22;10667;51.056;3.732;2023-03-23T15:52:57;16.40;99.90
21019;DHT22;10667;51.056;3.732;2023-03-23T15:55:29;16.30;99.90
21019;DHT22;10667;51.056;3.732;2023-03-23T15:57:56;16.10;99.90
21019;DHT22;10667;51.056;3.732;2023-03-23T16:00:24;16.00;99.90
21019;DHT22;10667;51.056;3.732;2023-03-23T16:03:22;16.00;99.90
21019;DHT22;10667;51.056;3.732;2023-03-23T16:05:52;16.00;99.90
21019;DHT22;10667;51.056;3.732;2023-03-23T16:08:18;15.80;99.90
21019;DHT22;10667;51.056;3.732;2023-03-23T16:10:44;15.70;99.90
21019;DHT22;10667;51.056;3.732;2023-03-23T16:13:09;15.60;99.90
21019;DHT22;10667;51.056;3.732;2023-03-23T16:15:35;15.50;99.90
21019;DHT22;10667;51.056;3.732;2023-03-23T16:18:01;15.60;99.90
21019;DHT22;10667;51.056;3.732;2023-03-23T16:20:28;15.80;99.90
21019;DHT22;10667;51.056;3.732;2023-03-23T16:22:55;15.90;99.90
21019;DHT22;10667;51.056;3.732;2023-03-23T16:25:21;16.10;99.90
21019;DHT22;10667;51.056;3.732;2023-03-23T16:27:46;16.00;99.90
21019;DHT22;10667;51.056;3.732;2023-03-23T16:30:27;15.80;99.90
21019;DHT22;10667;51.056;3.732;2023-03-23T16:32:53;16.00;99.90
21019;DHT22;10667;51.056;3.732;2023-03-23T16:35:20;16.00;99.90
21019;DHT22;10667;51.056;3.732;2023-03-23T16:37:47;15.90;99.90
21019;DHT22;10667;51.056;3.732;2023-03-23T16:40:15;15.90;99.90
21019;DHT22;10667;51.056;3.732;2023-03-23T16:42:41;15.70;99.90
21019;DHT22;10667;51.056;3.732;2023-03-23T16:45:07;15.70;99.90
21019;DHT22;10667;51.056;3.732;2023-03-23T16:47:33;15.70;99.90
21019;DHT22;10667;51.056;3.732;2023-03-23T16:49:59;15.70;99.90
21019;DHT22;10667;51.056;3.732;2023-03-23T16:52:25;15.90;99.90
21019;DHT22;10667;51.056;3.732;2023-03-23T16:54:50;15.80;99.90
21019;DHT22;10667;51.056;3.732;2023-03-23T16:57:16;15.80;99.90
21019;DHT22;10667;51.056;3.732;2023-03-23T16:59:42;15.70;99.90
21019;DHT22;10667;51.056;3.732;2023-03-23T17:02:10;15.70;99.90
21019;DHT22;10667;51.056;3.732;2023-03-23T17:04:36;15.90;99.90
21019;DHT22;10667;51.056;3.732;2023-03-23T17:07:02;15.80;99.90
21019;DHT22;10667;51.056;3.732;2023-03-23T17:09:28;15.70;99.90
21019;DHT22;10667;51.056;3.732;2023-03-23T17:11:54;15.80;99.90
21019;DHT22;10667;51.056;3.732;2023-03-23T17:14:20;15.80;99.90
21019;DHT22;10667;51.056;3.732;2023-03-23T17:16:46;15.80;99.90
21019;DHT22;10667;51.056;3.732;2023-03-23T17:19:12;16.00;99.90
21019;DHT22;10667;51.056;3.732;2023-03-23T17:21:42;15.80;99.90
21019;DHT22;10667;51.056;3.732;2023-03-23T17:24:08;15.80;99.90
21019;DHT22;10667;51.056;3.732;2023-03-23T17:26:34;15.90;99.90
21019;DHT22;10667;51.056;3.732;2023-03-23T17:29:02;15.90;99.90
21019;DHT22;10667;51.056;3.732;2023-03-23T17:31:27;15.90;99.90
21019;DHT22;10667;51.056;3.732;2023-03-23T17:33:53;16.00;99.90
21019;DHT22;10667;51.056;3.732;2023-03-23T17:36:20;16.00;99.90
21019;DHT22;10667;51.056;3.732;2023-03-23T17:38:45;15.80;99.90
21019;DHT22;10667;51.056;3.732;2023-03-23T17:41:11;15.80;99.90
21019;DHT22;10667;51.056;3.732;2023-03-23T17:43:38;15.80;99.90
21019;DHT22;10667;51.056;3.732;2023-03-23T17:46:06;15.70;99.90
21019;DHT22;10667;51.056;3.732;2023-03-23T17:48:32;15.80;99.90
21019;DHT22;10667;51.056;3.732;2023-03-23T17:50:58;15.90;99.90
21019;DHT22;10667;51.056;3.732;2023-03-23T17:53:27;16.00;99.90